createdAt,value
2019-02-24T00:00:51.963Z,10.85
2019-02-24T00:03:21.346Z,11.90
2019-02-24T00:05:50.689Z,10.15
2019-02-24T00:08:19.939Z,10.38
2019-02-24T00:10:49.269Z,8.90
2019-02-24T00:13:18.554Z,10.70
2019-02-24T00:15:47.922Z,11.10
2019-02-24T00:18:17.289Z,10.78
2019-02-24T00:20:46.558Z,10.45
2019-02-24T00:23:15.862Z,10.25
2019-02-24T00:25:45.186Z,10.80
2019-02-24T00:28:14.454Z,9.90
2019-02-24T00:30:43.846Z,11.22
2019-02-24T00:33:13.247Z,9.98
2019-02-24T00:35:43.582Z,9.13
2019-02-24T00:38:12.966Z,9.38
2019-02-24T00:40:42.329Z,10.25
2019-02-24T00:43:11.585Z,9.13
2019-02-24T00:45:40.952Z,9.58
2019-02-24T00:48:10.226Z,9.20
2019-02-24T00:50:39.466Z,8.98
2019-02-24T00:53:08.871Z,9.80
2019-02-24T00:55:38.201Z,9.33
2019-02-24T00:58:15.770Z,9.18
2019-02-24T01:00:38.895Z,8.53
2019-02-24T01:03:08.230Z,8.85
2019-02-24T01:05:37.723Z,9.40
2019-02-24T01:08:07.443Z,8.15
2019-02-24T01:10:36.807Z,9.23
2019-02-24T01:13:06.241Z,10.38
2019-02-24T01:15:35.678Z,9.53
2019-02-24T01:18:05.006Z,9.35
2019-02-24T01:20:34.278Z,8.35
2019-02-24T01:23:03.630Z,9.50
2019-02-24T01:25:32.881Z,8.90
2019-02-24T01:28:02.177Z,8.08
2019-02-24T01:30:31.470Z,8.65
2019-02-24T01:33:00.818Z,8.03
2019-02-24T01:35:30.117Z,8.43
2019-02-24T01:37:59.474Z,8.80
2019-02-24T01:40:28.786Z,10.18
2019-02-24T01:42:58.185Z,9.10
2019-02-24T01:45:27.590Z,9.35
2019-02-24T01:47:56.914Z,9.00
2019-02-24T01:50:26.222Z,8.90
2019-02-24T01:52:55.518Z,8.50
2019-02-24T01:55:24.824Z,9.15
2019-02-24T01:57:54.113Z,8.48
2019-02-24T02:00:23.378Z,8.58
2019-02-24T02:02:52.685Z,8.60
2019-02-24T02:05:22.002Z,8.13
2019-02-24T02:07:51.320Z,8.40
2019-02-24T02:10:20.600Z,8.50
2019-02-24T02:12:49.894Z,8.70
2019-02-24T02:15:19.359Z,9.88
2019-02-24T02:17:48.582Z,7.90
2019-02-24T02:20:17.892Z,7.87
2019-02-24T02:22:47.142Z,9.40
2019-02-24T02:25:16.654Z,8.90
2019-02-24T02:27:45.919Z,8.30
2019-02-24T02:30:15.319Z,8.75
2019-02-24T02:32:44.601Z,8.65
2019-02-24T02:35:13.924Z,9.03
2019-02-24T02:37:43.230Z,9.20
2019-02-24T02:40:12.495Z,9.93
2019-02-24T02:42:41.812Z,8.75
2019-02-24T02:45:11.190Z,10.20
2019-02-24T02:47:40.498Z,8.53
2019-02-24T02:50:09.804Z,9.25
2019-02-24T02:52:39.120Z,8.80
2019-02-24T02:55:08.429Z,8.10
2019-02-24T02:57:37.718Z,7.78
2019-02-24T03:00:13.753Z,9.13
2019-02-24T03:02:43.072Z,8.80
2019-02-24T03:05:12.378Z,8.70
2019-02-24T03:07:45.482Z,8.00
2019-02-24T03:10:14.815Z,8.63
2019-02-24T03:12:44.180Z,8.98
2019-02-24T03:15:13.524Z,8.75
2019-02-24T03:17:42.880Z,7.25
2019-02-24T03:20:12.359Z,8.58
2019-02-24T03:22:41.714Z,8.40
2019-02-24T03:25:11.098Z,8.33
2019-02-24T03:27:40.410Z,8.58
2019-02-24T03:30:09.689Z,8.68
2019-02-24T03:32:38.971Z,7.95
2019-02-24T03:35:08.349Z,9.00
2019-02-24T03:37:37.686Z,9.78
2019-02-24T03:40:07.146Z,8.20
2019-02-24T03:42:36.377Z,9.20
2019-02-24T03:45:05.713Z,8.05
2019-02-24T03:47:34.985Z,8.68
2019-02-24T03:50:04.837Z,9.15
2019-02-24T03:52:34.129Z,9.30
2019-02-24T03:55:03.402Z,8.95
2019-02-24T03:57:32.835Z,9.13
2019-02-24T04:00:02.113Z,8.63
2019-02-24T04:02:31.403Z,8.90
2019-02-24T04:05:00.728Z,9.55
2019-02-24T04:07:30.018Z,8.80
2019-02-24T04:09:59.348Z,8.50
2019-02-24T04:12:28.728Z,8.58
2019-02-24T04:14:58.219Z,9.18
2019-02-24T04:17:27.627Z,8.98
2019-02-24T04:19:56.974Z,8.13
2019-02-24T04:22:26.334Z,7.92
2019-02-24T04:24:55.615Z,7.90
2019-02-24T04:27:24.937Z,9.50
2019-02-24T04:29:54.218Z,7.40
2019-02-24T04:32:23.574Z,7.60
2019-02-24T04:34:52.854Z,10.05
2019-02-24T04:37:22.098Z,8.18
2019-02-24T04:39:51.405Z,8.70
2019-02-24T04:42:20.737Z,9.38
2019-02-24T04:44:50.009Z,8.60
2019-02-24T04:47:19.321Z,7.67
2019-02-24T04:49:48.658Z,8.30
2019-02-24T04:52:17.954Z,8.83
2019-02-24T04:54:47.175Z,7.97
2019-02-24T04:57:16.410Z,8.00
2019-02-24T04:59:45.742Z,7.58
2019-02-24T05:02:15.027Z,9.58
2019-02-24T05:04:44.335Z,7.83
2019-02-24T05:07:13.630Z,8.08
2019-02-24T05:09:42.942Z,8.63
2019-02-24T05:12:12.251Z,8.63
2019-02-24T05:14:41.538Z,9.10
2019-02-24T05:17:10.834Z,8.43
2019-02-24T05:19:40.133Z,8.65
2019-02-24T05:22:09.397Z,8.70
2019-02-24T05:24:38.638Z,8.73
2019-02-24T05:27:08.036Z,9.10
2019-02-24T05:29:45.457Z,8.30
2019-02-24T05:32:08.282Z,8.98
2019-02-24T05:34:37.645Z,8.20
2019-02-24T05:37:07.013Z,7.83
2019-02-24T05:39:36.254Z,7.95
2019-02-24T05:42:05.569Z,8.43
2019-02-24T05:44:34.877Z,9.10
2019-02-24T05:47:04.186Z,8.15
2019-02-24T05:49:33.514Z,9.23
2019-02-24T05:52:02.812Z,9.25
2019-02-24T05:54:32.045Z,8.60
2019-02-24T05:57:01.358Z,8.80
2019-02-24T05:59:30.699Z,8.40
2019-02-24T06:01:59.945Z,9.23
2019-02-24T06:04:29.279Z,9.95
2019-02-24T06:06:58.611Z,9.60
2019-02-24T06:09:27.880Z,9.18
2019-02-24T06:11:57.250Z,9.43
2019-02-24T06:14:26.610Z,9.58
2019-02-24T06:16:55.882Z,9.20
2019-02-24T06:19:25.183Z,8.68
2019-02-24T06:21:54.547Z,9.00
2019-02-24T06:24:23.889Z,9.43
2019-02-24T06:26:53.195Z,8.65
2019-02-24T06:29:22.603Z,11.05
2019-02-24T06:31:51.869Z,10.45
2019-02-24T06:34:21.310Z,9.98
2019-02-24T06:36:50.594Z,10.20
2019-02-24T06:39:19.894Z,9.20
2019-02-24T06:41:49.210Z,9.45
2019-02-24T06:44:18.453Z,9.60
2019-02-24T06:46:47.753Z,9.13
2019-02-24T06:49:17.004Z,10.25
2019-02-24T06:51:46.300Z,8.65
2019-02-24T06:54:15.527Z,9.40
2019-02-24T06:56:44.818Z,9.40
2019-02-24T06:59:14.085Z,9.30
2019-02-24T07:01:43.485Z,8.93
2019-02-24T07:04:12.850Z,9.23
2019-02-24T07:06:42.106Z,9.73
2019-02-24T07:09:11.412Z,11.10
2019-02-24T07:11:40.682Z,9.10
2019-02-24T07:14:09.982Z,10.63
2019-02-24T07:16:39.324Z,10.58
2019-02-24T07:19:08.590Z,10.23
2019-02-24T07:21:38.830Z,9.78
2019-02-24T07:24:08.297Z,10.75
2019-02-24T07:26:39.675Z,9.53
2019-02-24T07:29:08.989Z,11.08
2019-02-24T07:31:38.266Z,10.63
2019-02-24T07:34:07.569Z,9.30
2019-02-24T07:36:36.897Z,11.15
2019-02-24T07:39:06.742Z,10.75
2019-02-24T07:41:36.103Z,11.12
2019-02-24T07:44:05.413Z,10.93
2019-02-24T07:46:34.741Z,10.50
2019-02-24T07:49:04.108Z,10.35
2019-02-24T07:51:33.382Z,10.50
2019-02-24T07:54:02.788Z,10.20
2019-02-24T07:56:32.054Z,10.75
2019-02-24T07:59:01.408Z,10.40
2019-02-24T08:01:30.798Z,10.55
2019-02-24T08:04:00.108Z,11.90
2019-02-24T08:06:29.471Z,11.05
2019-02-24T08:08:58.846Z,11.50
2019-02-24T08:11:28.131Z,10.80
2019-02-24T08:13:57.458Z,11.50
2019-02-24T08:16:26.841Z,11.12
2019-02-24T08:18:56.266Z,11.38
2019-02-24T08:21:25.679Z,10.85
2019-02-24T08:23:55.040Z,10.05
2019-02-24T08:26:43.434Z,10.63
2019-02-24T08:29:12.782Z,9.90
2019-02-24T08:31:42.072Z,10.65
2019-02-24T08:34:11.407Z,12.13
2019-02-24T08:36:40.819Z,10.50
2019-02-24T08:39:10.282Z,11.07
2019-02-24T08:41:39.614Z,11.50
2019-02-24T08:44:08.901Z,11.37
2019-02-24T08:46:38.327Z,10.70
2019-02-24T08:49:07.818Z,10.67
2019-02-24T08:51:37.358Z,10.27
2019-02-24T08:54:06.711Z,9.33
2019-02-24T08:56:36.256Z,9.70
2019-02-24T08:59:05.670Z,10.03
2019-02-24T09:01:35.142Z,10.37
2019-02-24T09:04:04.396Z,9.93
2019-02-24T09:06:33.697Z,10.23
2019-02-24T09:09:02.989Z,9.53
2019-02-24T09:11:32.345Z,11.40
2019-02-24T09:14:01.662Z,9.23
2019-02-24T09:16:31.311Z,8.90
2019-02-24T09:19:00.627Z,9.00
2019-02-24T09:21:29.962Z,10.73
2019-02-24T09:23:59.292Z,10.73
2019-02-24T09:26:28.516Z,9.87
2019-02-24T09:28:58.081Z,8.30
2019-02-24T09:31:27.567Z,8.60
2019-02-24T09:33:56.842Z,9.07
2019-02-24T09:36:26.555Z,9.20
2019-02-24T09:38:55.848Z,8.33
2019-02-24T09:41:25.312Z,9.20
2019-02-24T09:43:54.811Z,10.17
2019-02-24T09:46:24.078Z,10.20
2019-02-24T09:48:53.448Z,9.03
2019-02-24T09:51:22.745Z,10.07
2019-02-24T09:53:52.092Z,10.40
2019-02-24T09:56:21.409Z,9.80
2019-02-24T09:58:50.838Z,9.10
2019-02-24T10:01:20.227Z,8.70
2019-02-24T10:03:49.571Z,9.60
2019-02-24T10:06:18.851Z,8.43
2019-02-24T10:08:48.343Z,7.60
2019-02-24T10:11:17.685Z,7.60
2019-02-24T10:13:46.954Z,6.60
2019-02-24T10:16:16.243Z,7.27
2019-02-24T10:18:45.597Z,7.20
2019-02-24T10:21:14.843Z,7.07
2019-02-24T10:23:44.216Z,7.30
2019-02-24T10:26:13.671Z,8.03
2019-02-24T10:28:42.913Z,6.00
2019-02-24T10:31:19.582Z,7.50
2019-02-24T10:33:43.377Z,6.87
2019-02-24T10:36:12.726Z,6.13
2019-02-24T10:38:42.170Z,7.00
2019-02-24T10:41:11.394Z,5.60
2019-02-24T10:43:40.583Z,7.13
2019-02-24T10:46:11.294Z,7.07
2019-02-24T10:48:40.805Z,6.40
2019-02-24T10:51:10.249Z,6.90
2019-02-24T10:53:39.559Z,5.67
2019-02-24T10:56:09.081Z,6.40
2019-02-24T10:58:38.564Z,6.53
2019-02-24T11:01:11.130Z,6.27
2019-02-24T11:03:40.597Z,6.37
2019-02-24T11:06:11.056Z,5.60
2019-02-24T11:08:40.710Z,4.67
2019-02-24T11:11:10.223Z,3.67
2019-02-24T11:13:40.068Z,3.77
2019-02-24T11:16:09.527Z,4.30
2019-02-24T11:18:38.998Z,4.33
2019-02-24T11:21:08.425Z,3.80
2019-02-24T11:23:37.749Z,3.90
2019-02-24T11:26:07.248Z,4.10
2019-02-24T11:28:36.878Z,5.93
2019-02-24T11:31:06.317Z,6.50
2019-02-24T11:33:35.664Z,6.00
2019-02-24T11:36:05.508Z,6.80
2019-02-24T11:38:35.076Z,5.60
2019-02-24T11:41:04.540Z,6.80
2019-02-24T11:43:34.134Z,6.70
2019-02-24T11:46:03.517Z,6.37
2019-02-24T11:48:32.842Z,6.90
2019-02-24T11:51:02.082Z,8.80
2019-02-24T11:53:31.602Z,6.37
2019-02-24T11:56:01.144Z,6.27
2019-02-24T11:58:30.634Z,6.20
2019-02-24T12:00:59.968Z,5.93
2019-02-24T12:03:29.582Z,5.60
2019-02-24T12:05:59.060Z,6.23
2019-02-24T12:08:28.338Z,6.70
2019-02-24T12:10:57.791Z,5.67
2019-02-24T12:13:27.355Z,5.53
2019-02-24T12:15:56.688Z,5.40
2019-02-24T12:18:26.032Z,5.13
2019-02-24T12:20:55.525Z,6.37
2019-02-24T12:23:25.053Z,4.87
2019-02-24T12:25:54.555Z,5.50
2019-02-24T12:28:23.799Z,4.97
2019-02-24T12:30:53.111Z,5.00
2019-02-24T12:33:22.659Z,5.10
2019-02-24T12:35:54.857Z,4.80
2019-02-24T12:38:24.181Z,4.70
2019-02-24T12:40:55.809Z,5.67
2019-02-24T12:43:25.115Z,5.33
2019-02-24T12:45:54.414Z,5.83
2019-02-24T12:48:23.790Z,5.80
2019-02-24T12:50:53.084Z,7.07
2019-02-24T12:53:22.493Z,5.23
2019-02-24T12:55:51.827Z,5.43
2019-02-24T12:58:21.199Z,5.80
2019-02-24T13:00:50.473Z,6.43
2019-02-24T13:03:24.020Z,7.00
2019-02-24T13:05:50.826Z,7.07
2019-02-24T13:08:20.423Z,6.37
2019-02-24T13:10:49.848Z,6.77
2019-02-24T13:13:19.269Z,6.13
2019-02-24T13:15:48.642Z,7.30
2019-02-24T13:18:18.054Z,6.30
2019-02-24T13:20:47.350Z,6.47
2019-02-24T13:23:16.636Z,6.20
2019-02-24T13:25:45.970Z,6.20
2019-02-24T13:28:15.219Z,5.73
2019-02-24T13:30:44.515Z,6.70
2019-02-24T13:33:13.965Z,6.30
2019-02-24T13:35:43.372Z,6.37
2019-02-24T13:38:12.828Z,6.77
2019-02-24T13:40:42.199Z,5.83
2019-02-24T13:43:11.585Z,6.27
2019-02-24T13:45:40.922Z,6.30
2019-02-24T13:48:10.286Z,6.20
2019-02-24T13:50:40.169Z,7.30
2019-02-24T13:53:09.546Z,6.53
2019-02-24T13:55:38.971Z,6.47
2019-02-24T13:58:08.438Z,4.90
2019-02-24T14:00:37.975Z,4.70
2019-02-24T14:03:07.694Z,5.80
2019-02-24T14:05:37.506Z,6.50
2019-02-24T14:08:06.886Z,6.60
2019-02-24T14:10:36.639Z,6.37
2019-02-24T14:13:06.022Z,6.80
2019-02-24T14:15:35.458Z,5.67
2019-02-24T14:18:05.192Z,5.07
2019-02-24T14:20:34.456Z,5.47
2019-02-24T14:23:03.976Z,5.30
2019-02-24T14:25:33.325Z,5.93
2019-02-24T14:28:02.831Z,5.03
2019-02-24T14:30:32.077Z,5.80
2019-02-24T14:33:01.307Z,4.90
2019-02-24T14:35:30.733Z,5.37
2019-02-24T14:38:00.083Z,6.00
2019-02-24T14:40:29.414Z,6.13
2019-02-24T14:42:58.860Z,5.40
2019-02-24T14:45:28.221Z,4.77
2019-02-24T14:47:57.538Z,5.13
2019-02-24T14:50:26.911Z,5.03
2019-02-24T14:52:56.212Z,5.00
2019-02-24T14:55:25.722Z,5.90
2019-02-24T14:57:55.090Z,5.93
2019-02-24T15:00:24.331Z,5.87
2019-02-24T15:02:53.766Z,6.13
2019-02-24T15:05:23.245Z,5.30
2019-02-24T15:07:52.553Z,5.93
2019-02-24T15:10:21.906Z,5.10
2019-02-24T15:12:51.415Z,5.30
2019-02-24T15:15:20.863Z,4.40
2019-02-24T15:17:50.452Z,4.80
2019-02-24T15:20:20.196Z,4.73
2019-02-24T15:22:49.588Z,3.47
2019-02-24T15:25:18.834Z,3.40
2019-02-24T15:27:48.241Z,3.80
2019-02-24T15:30:21.132Z,3.67
2019-02-24T15:32:51.888Z,4.03
2019-02-24T15:35:21.849Z,3.63
2019-02-24T15:37:52.914Z,4.03
2019-02-24T15:40:22.540Z,4.07
2019-02-24T15:42:52.137Z,3.73
2019-02-24T15:45:21.863Z,3.53
2019-02-24T15:47:51.889Z,3.40
2019-02-24T15:50:21.173Z,3.37
2019-02-24T15:52:50.553Z,4.40
2019-02-24T15:55:19.896Z,4.40
2019-02-24T15:57:49.179Z,3.90
2019-02-24T16:00:18.425Z,4.77
2019-02-24T16:02:47.751Z,4.13
2019-02-24T16:05:17.080Z,3.80
2019-02-24T16:07:46.341Z,4.07
2019-02-24T16:10:16.265Z,3.97
2019-02-24T16:12:45.572Z,3.37
2019-02-24T16:15:16.122Z,3.33
2019-02-24T16:17:45.394Z,3.00
2019-02-24T16:20:16.980Z,3.47
2019-02-24T16:22:46.250Z,3.30
2019-02-24T16:25:15.574Z,3.40
2019-02-24T16:27:45.114Z,2.90
2019-02-24T16:30:14.586Z,3.47
2019-02-24T16:32:44.060Z,3.73
2019-02-24T16:35:14.228Z,3.90
2019-02-24T16:37:43.501Z,3.67
2019-02-24T16:40:14.950Z,3.77
2019-02-24T16:42:44.253Z,2.93
2019-02-24T16:45:13.869Z,3.30
2019-02-24T16:47:43.120Z,2.60
2019-02-24T16:50:13.932Z,3.10
2019-02-24T16:52:43.206Z,3.77
2019-02-24T16:55:13.406Z,3.47
2019-02-24T16:57:42.735Z,4.20
2019-02-24T17:00:17.254Z,4.83
2019-02-24T17:02:46.584Z,4.40
2019-02-24T17:05:16.180Z,12.17
2019-02-24T17:07:45.430Z,6.60
2019-02-24T17:10:16.923Z,4.60
2019-02-24T17:12:46.420Z,4.73
2019-02-24T17:15:15.819Z,4.03
2019-02-24T17:17:46.089Z,4.93
2019-02-24T17:20:16.589Z,4.03
2019-02-24T17:22:45.856Z,4.43
2019-02-24T17:25:15.137Z,4.13
2019-02-24T17:27:44.448Z,6.10
2019-02-24T17:30:14.162Z,4.40
2019-02-24T17:32:43.420Z,4.93
2019-02-24T17:35:13.099Z,4.73
2019-02-24T17:37:42.374Z,5.33
2019-02-24T17:40:12.554Z,5.63
2019-02-24T17:42:41.942Z,5.17
2019-02-24T17:45:12.284Z,6.77
2019-02-24T17:47:41.626Z,6.93
2019-02-24T17:50:11.528Z,6.63
2019-02-24T17:52:40.966Z,7.23
2019-02-24T17:55:10.927Z,5.80
2019-02-24T17:57:40.256Z,6.23
2019-02-24T18:00:19.210Z,5.90
2019-02-24T18:02:48.474Z,4.93
2019-02-24T18:05:17.797Z,6.47
2019-02-24T18:07:47.102Z,6.50
2019-02-24T18:10:16.473Z,4.60
2019-02-24T18:12:45.786Z,6.07
2019-02-24T18:15:15.098Z,9.70
2019-02-24T18:17:44.431Z,10.20
2019-02-24T18:20:13.936Z,8.17
2019-02-24T18:22:43.374Z,6.90
2019-02-24T18:25:12.961Z,7.50
2019-02-24T18:27:42.255Z,8.20
2019-02-24T18:30:14.920Z,7.00
2019-02-24T18:32:44.178Z,8.75
2019-02-24T18:35:13.481Z,8.20
2019-02-24T18:37:42.797Z,8.00
2019-02-24T18:40:13.222Z,6.85
2019-02-24T18:42:42.501Z,7.58
2019-02-24T18:45:12.537Z,7.20
2019-02-24T18:47:41.850Z,6.42
2019-02-24T18:50:11.490Z,6.55
2019-02-24T18:52:40.833Z,6.15
2019-02-24T18:55:10.226Z,6.42
2019-02-24T18:57:39.552Z,6.15
2019-02-24T19:00:10.720Z,6.30
2019-02-24T19:02:40.006Z,6.70
2019-02-24T19:05:09.593Z,6.50
2019-02-24T19:07:38.906Z,21.52
2019-02-24T19:10:10.118Z,7.45
2019-02-24T19:12:39.448Z,6.45
2019-02-24T19:15:11.039Z,7.50
2019-02-24T19:17:40.362Z,7.22
2019-02-24T19:20:10.340Z,6.60
2019-02-24T19:22:39.609Z,7.05
2019-02-24T19:25:09.678Z,7.80
2019-02-24T19:27:39.276Z,7.12
2019-02-24T19:30:10.337Z,7.30
2019-02-24T19:32:39.600Z,7.12
2019-02-24T19:35:09.700Z,7.85
2019-02-24T19:37:39.100Z,7.55
2019-02-24T19:40:10.473Z,7.70
2019-02-24T19:42:39.869Z,8.18
2019-02-24T19:45:09.917Z,8.40
2019-02-24T19:47:39.390Z,8.43
2019-02-24T19:50:11.367Z,8.03
2019-02-24T19:52:40.830Z,9.05
2019-02-24T19:55:10.376Z,8.83
2019-02-24T19:57:39.781Z,7.85
2019-02-24T20:00:12.438Z,8.70
2019-02-24T20:02:41.890Z,8.38
2019-02-24T20:05:11.265Z,8.43
2019-02-24T20:07:40.593Z,9.38
2019-02-24T20:10:10.299Z,9.03
2019-02-24T20:12:39.686Z,7.92
2019-02-24T20:15:10.762Z,9.75
2019-02-24T20:17:40.126Z,9.25
2019-02-24T20:20:10.350Z,9.55
2019-02-24T20:22:39.578Z,9.80
2019-02-24T20:25:09.982Z,9.20
2019-02-24T20:27:39.243Z,7.75
2019-02-24T20:30:14.210Z,9.18
2019-02-24T20:32:43.479Z,9.13
2019-02-24T20:35:12.779Z,8.88
2019-02-24T20:37:42.106Z,9.08
2019-02-24T20:40:11.370Z,9.25
2019-02-24T20:42:40.676Z,10.85
2019-02-24T20:45:11.667Z,9.98
2019-02-24T20:47:40.918Z,8.78
2019-02-24T20:50:11.148Z,10.32
2019-02-24T20:52:41.027Z,9.93
2019-02-24T20:55:12.314Z,9.10
2019-02-24T20:57:41.754Z,9.10
2019-02-24T21:00:17.803Z,10.13
2019-02-24T21:02:49.046Z,9.70
2019-02-24T21:05:19.841Z,10.55
2019-02-24T21:07:49.270Z,10.68
2019-02-24T21:10:18.541Z,10.98
2019-02-24T21:12:47.932Z,11.05
2019-02-24T21:15:17.284Z,11.08
2019-02-24T21:17:46.593Z,11.00
2019-02-24T21:20:20.478Z,9.90
2019-02-24T21:22:50.569Z,10.55
2019-02-24T21:25:20.257Z,9.95
2019-02-24T21:27:49.614Z,10.80
2019-02-24T21:30:19.030Z,10.70
2019-02-24T21:32:49.390Z,9.75
2019-02-24T21:35:18.749Z,9.78
2019-02-24T21:37:48.027Z,10.60
2019-02-24T21:40:17.602Z,10.32
2019-02-24T21:42:46.973Z,11.55
2019-02-24T21:45:17.900Z,12.25
2019-02-24T21:47:47.165Z,10.32
2019-02-24T21:50:16.992Z,11.60
2019-02-24T21:52:46.303Z,11.20
2019-02-24T21:55:15.581Z,11.45
2019-02-24T21:57:44.940Z,11.30
2019-02-24T22:00:19.252Z,11.15
2019-02-24T22:02:48.847Z,12.58
2019-02-24T22:05:18.142Z,11.78
2019-02-24T22:07:47.403Z,11.00
2019-02-24T22:10:16.834Z,11.65
2019-02-24T22:12:46.119Z,11.48
2019-02-24T22:15:16.902Z,11.20
2019-02-24T22:17:46.330Z,11.78
2019-02-24T22:20:16.530Z,12.20
2019-02-24T22:22:45.898Z,12.33
2019-02-24T22:25:15.514Z,11.57
2019-02-24T22:27:44.770Z,11.53
2019-02-24T22:30:15.361Z,11.97
2019-02-24T22:32:44.663Z,11.20
2019-02-24T22:35:14.053Z,11.30
2019-02-24T22:37:43.311Z,11.45
2019-02-24T22:40:12.825Z,10.85
2019-02-24T22:42:42.112Z,12.88
2019-02-24T22:45:13.305Z,10.95
2019-02-24T22:47:43.990Z,12.15
2019-02-24T22:50:13.354Z,11.65
2019-02-24T22:52:42.737Z,11.15
2019-02-24T22:55:12.086Z,11.00
2019-02-24T22:57:41.433Z,11.55
2019-02-24T23:00:57.523Z,11.00
2019-02-24T23:03:29.298Z,10.98
2019-02-24T23:05:58.556Z,11.65
2019-02-24T23:08:27.890Z,11.43
2019-02-24T23:10:57.166Z,12.13
2019-02-24T23:13:26.480Z,11.57
2019-02-24T23:15:55.706Z,10.60
2019-02-24T23:18:24.934Z,10.90
2019-02-24T23:20:54.204Z,10.70
2019-02-24T23:23:23.483Z,11.95
2019-02-24T23:25:52.775Z,11.30
2019-02-24T23:28:22.084Z,11.22
2019-02-24T23:30:51.358Z,11.50
2019-02-24T23:33:20.703Z,10.93
2019-02-24T23:35:49.969Z,11.83
2019-02-24T23:38:19.262Z,11.03
2019-02-24T23:40:48.621Z,11.03
2019-02-24T23:43:17.975Z,11.83
2019-02-24T23:45:47.297Z,10.82
2019-02-24T23:48:16.557Z,12.20
2019-02-24T23:50:45.862Z,12.10
2019-02-24T23:53:15.182Z,11.57
2019-02-24T23:55:44.469Z,11.93
2019-02-24T23:58:13.865Z,12.55
